TDPD/DOM METAR and TAF weather

Enter ICAO airport designator
Station Type Date Time Source
TDPD METAR 2022/12/05 14:00 UTC NOAA

TDPD 051400Z 31004KT 9999 FEW022 29/21 Q1011


Station Type Date Time Source
TDPD Decoded METAR 2022/12/05 14:00 UTC NOAA

Melville Hall Airport, Dominica (TDPD) 15-32N 061-18W 14M
Dec 05, 2022 - 09:00 AM EST / 2022.12.05 1400 UTC
Wind: from the NW (310 degrees) at 5 MPH (4 KT):0
Visibility: greater than 7 mile(s):0
Sky conditions: mostly clear
Temperature: 84 F (29 C)
Dew Point: 69 F (21 C)
Relative Humidity: 62%
Pressure (altimeter): 29.85 in. Hg (1011 hPa)
ob: TDPD 051400Z 31004KT 9999 FEW022 29/21 Q1011
cycle: 14

Station Type Date Time Source
TDPD TAF 2022/12/05 12:44 UTC NOAA

TAF TDPD 051100Z 0512/0612 VRB02KT 9999 SCT018

Example: see airport list